createdAt,value
2022-12-11T00:04:27.792Z,57.40
2022-12-11T00:09:29.773Z,54.40
2022-12-11T00:14:32.006Z,61.53
2022-12-11T00:19:34.157Z,66.57
2022-12-11T00:24:37.919Z,67.10
2022-12-11T00:29:39.618Z,65.57
2022-12-11T00:34:41.364Z,65.73
2022-12-11T00:39:43.152Z,70.60
2022-12-11T00:44:44.955Z,81.37
2022-12-11T00:49:50.128Z,99.37
2022-12-11T00:54:52.040Z,102.33
2022-12-11T00:59:55.794Z,93.13
2022-12-11T01:05:01.994Z,105.67
2022-12-11T01:10:23.599Z,101.07
2022-12-11T01:15:30.195Z,105.47
2022-12-11T01:20:32.433Z,107.47
2022-12-11T01:25:35.955Z,112.60
2022-12-11T01:30:41.868Z,109.23
2022-12-11T01:35:45.806Z,124.73
2022-12-11T01:40:54.479Z,107.07
2022-12-11T01:45:58.811Z,113.93
2022-12-11T01:51:03.368Z,110.57
2022-12-11T01:56:08.815Z,104.03
2022-12-11T02:01:17.249Z,106.47
2022-12-11T02:06:42.067Z,108.20
2022-12-11T02:11:58.279Z,110.60
2022-12-11T02:17:06.720Z,111.57
2022-12-11T02:22:12.119Z,109.80
2022-12-11T02:27:21.740Z,117.70
2022-12-11T02:32:32.222Z,128.03
2022-12-11T02:37:38.291Z,121.03
2022-12-11T02:42:44.454Z,102.47
2022-12-11T02:47:48.563Z,126.93
2022-12-11T02:52:52.468Z,122.63
2022-12-11T02:58:05.817Z,117.53
2022-12-11T03:03:09.681Z,121.07
2022-12-11T03:08:11.545Z,113.00
2022-12-11T03:13:19.561Z,119.60
2022-12-11T03:18:49.580Z,117.17
2022-12-11T03:24:04.884Z,117.70
2022-12-11T03:29:16.632Z,109.50
2022-12-11T03:34:22.673Z,112.53
2022-12-11T03:39:32.315Z,109.03
2022-12-11T03:44:47.314Z,131.53
2022-12-11T03:49:50.511Z,120.43
2022-12-11T03:54:58.234Z,133.83
2022-12-11T04:00:01.022Z,120.90
2022-12-11T04:05:13.640Z,124.33
2022-12-11T04:10:17.658Z,132.40
2022-12-11T04:15:32.622Z,150.07
2022-12-11T04:20:54.642Z,161.53
2022-12-11T04:26:13.799Z,164.57
2022-12-11T04:31:18.510Z,148.53
2022-12-11T04:36:25.533Z,139.40
2022-12-11T04:41:32.005Z,149.47
2022-12-11T04:46:34.280Z,153.77
2022-12-11T04:51:40.561Z,134.87
2022-12-11T04:56:42.508Z,121.00
2022-12-11T05:01:46.872Z,152.57
2022-12-11T05:06:52.614Z,130.33
2022-12-11T05:11:57.449Z,131.57
2022-12-11T05:17:01.531Z,127.97
2022-12-11T05:22:05.516Z,144.60
2022-12-11T05:27:07.251Z,133.60
2022-12-11T05:32:08.933Z,99.67
2022-12-11T05:37:10.669Z,156.87
2022-12-11T05:42:14.733Z,126.17
2022-12-11T05:47:20.365Z,135.57
2022-12-11T05:52:25.573Z,125.20
2022-12-11T05:57:27.236Z,128.30
2022-12-11T06:02:33.587Z,130.40
2022-12-11T06:07:36.432Z,112.73
2022-12-11T06:12:38.152Z,124.30
2022-12-11T06:17:39.821Z,114.13
2022-12-11T06:22:46.006Z,120.07
2022-12-11T06:27:47.830Z,117.00
2022-12-11T06:32:51.952Z,99.73
2022-12-11T06:38:16.760Z,99.27
2022-12-11T06:43:24.013Z,96.90
2022-12-11T06:48:39.012Z,88.87
2022-12-11T06:53:41.556Z,94.77
2022-12-11T06:58:44.103Z,93.63
2022-12-11T07:03:46.156Z,77.33
2022-12-11T07:08:50.346Z,83.40
2022-12-11T07:13:56.676Z,75.10
2022-12-11T07:19:00.770Z,71.70
2022-12-11T07:24:02.850Z,70.97
2022-12-11T07:29:04.565Z,67.97
2022-12-11T07:34:11.270Z,77.20
2022-12-11T07:39:13.284Z,78.23
2022-12-11T07:44:15.641Z,75.60
2022-12-11T07:49:20.435Z,63.33
2022-12-11T07:54:24.643Z,64.83
2022-12-11T07:59:31.283Z,70.27
2022-12-11T08:04:38.657Z,70.97
2022-12-11T08:09:45.509Z,84.10
2022-12-11T08:14:50.242Z,61.37
2022-12-11T08:19:52.616Z,51.73
2022-12-11T08:24:54.534Z,73.23
2022-12-11T08:29:59.888Z,68.80
2022-12-11T08:35:04.499Z,86.03
2022-12-11T08:40:11.106Z,81.17
2022-12-11T08:45:16.446Z,87.17
2022-12-11T08:50:18.632Z,86.13
2022-12-11T08:55:22.007Z,75.13
2022-12-11T09:00:24.502Z,70.03
2022-12-11T09:05:28.876Z,68.90
2022-12-11T09:10:33.137Z,64.63
2022-12-11T09:15:40.531Z,67.93
2022-12-11T09:20:44.731Z,54.57
2022-12-11T09:25:48.080Z,60.73
2022-12-11T09:30:50.491Z,54.37
2022-12-11T09:36:02.957Z,51.50
2022-12-11T09:41:36.762Z,103.97
2022-12-11T09:46:39.783Z,44.47
2022-12-11T09:51:50.782Z,47.47
2022-12-11T09:57:02.903Z,45.10
2022-12-11T10:02:23.308Z,43.50
2022-12-11T10:07:38.786Z,38.40
2022-12-11T10:13:11.233Z,37.00
2022-12-11T10:18:17.216Z,34.87
2022-12-11T10:23:25.072Z,41.23
2022-12-11T10:28:30.172Z,34.47
2022-12-11T10:34:01.586Z,37.63
2022-12-11T10:39:19.802Z,39.57
2022-12-11T10:44:31.271Z,31.93
2022-12-11T10:49:35.187Z,34.33
2022-12-11T10:54:42.758Z,31.53
2022-12-11T10:59:49.813Z,39.63
2022-12-11T11:04:52.056Z,37.57
2022-12-11T11:10:11.107Z,43.97
2022-12-11T11:15:14.500Z,41.27
2022-12-11T11:20:29.609Z,40.30
2022-12-11T11:25:35.383Z,33.37
2022-12-11T11:30:41.577Z,31.43
2022-12-11T11:35:57.536Z,25.37
2022-12-11T11:41:21.592Z,31.73
2022-12-11T11:46:28.226Z,22.10
2022-12-11T11:52:11.911Z,30.00
2022-12-11T11:57:51.033Z,29.50
2022-12-11T12:03:21.183Z,29.17
2022-12-11T12:08:44.191Z,22.23
2022-12-11T12:13:53.650Z,27.30
2022-12-11T12:19:16.403Z,25.10
2022-12-11T12:24:18.143Z,28.43
2022-12-11T12:29:53.857Z,41.47
2022-12-11T12:35:05.297Z,32.03
2022-12-11T12:40:35.122Z,27.60
2022-12-11T12:45:56.103Z,29.37
2022-12-11T12:51:02.030Z,19.73
2022-12-11T12:56:06.572Z,25.97
2022-12-11T13:01:12.367Z,26.83
2022-12-11T13:06:17.186Z,22.13
2022-12-11T13:11:21.601Z,23.93
2022-12-11T13:16:53.282Z,20.07
2022-12-11T13:22:14.834Z,25.27
2022-12-11T13:27:27.245Z,28.83
2022-12-11T13:32:34.100Z,26.73
2022-12-11T13:37:41.749Z,30.77
2022-12-11T13:42:53.728Z,30.77
2022-12-11T13:48:02.415Z,27.23
2022-12-11T13:53:07.587Z,26.30
2022-12-11T13:58:20.693Z,24.40
2022-12-11T14:03:25.252Z,27.27
2022-12-11T14:08:37.432Z,28.73
2022-12-11T14:13:44.310Z,29.60
2022-12-11T14:18:52.549Z,27.43
2022-12-11T14:23:58.949Z,31.40
2022-12-11T14:29:01.604Z,25.13
2022-12-11T14:34:16.438Z,28.83
2022-12-11T14:39:38.196Z,32.47
2022-12-11T14:45:07.356Z,34.37
2022-12-11T14:50:22.225Z,27.00
2022-12-11T14:55:31.112Z,31.23
2022-12-11T15:00:39.920Z,33.07
2022-12-11T15:05:54.300Z,29.50
2022-12-11T15:11:14.475Z,33.03
2022-12-11T15:16:19.146Z,75.10
2022-12-11T15:21:31.706Z,26.50
2022-12-11T15:26:33.507Z,29.83
2022-12-11T15:31:37.913Z,27.83
2022-12-11T15:36:42.227Z,28.17
2022-12-11T15:41:48.839Z,28.10
2022-12-11T15:46:51.092Z,28.50
2022-12-11T15:51:54.603Z,28.87
2022-12-11T15:56:57.897Z,23.37
2022-12-11T16:02:00.290Z,31.67
2022-12-11T16:07:04.715Z,30.43
2022-12-11T16:12:10.917Z,32.90
2022-12-11T16:17:19.666Z,28.67
2022-12-11T16:22:25.664Z,38.57
2022-12-11T16:27:27.599Z,27.77
2022-12-11T16:32:29.683Z,27.92
2022-12-11T16:37:36.179Z,33.10
2022-12-11T16:42:39.251Z,25.27
2022-12-11T16:47:41.418Z,25.17
2022-12-11T16:52:44.311Z,24.93
2022-12-11T16:57:47.144Z,24.83
2022-12-11T17:02:49.153Z,26.80
2022-12-11T17:07:50.932Z,27.77
2022-12-11T17:12:55.197Z,32.97
2022-12-11T17:17:59.360Z,29.03
2022-12-11T17:23:01.456Z,32.20
2022-12-11T17:28:06.511Z,30.10
2022-12-11T17:33:08.973Z,29.53
2022-12-11T17:38:11.252Z,29.03
2022-12-11T17:43:16.053Z,24.73
2022-12-11T17:48:19.796Z,29.13
2022-12-11T17:53:23.741Z,29.27
2022-12-11T17:58:25.580Z,26.90
2022-12-11T18:03:28.376Z,29.93
2022-12-11T18:08:30.292Z,31.97
2022-12-11T18:13:38.684Z,30.10
2022-12-11T18:18:41.149Z,32.40
2022-12-11T18:23:43.464Z,30.50
2022-12-11T18:28:47.112Z,30.33
2022-12-11T18:33:51.462Z,28.77
2022-12-11T18:38:55.855Z,28.77
2022-12-11T18:44:04.015Z,24.83
2022-12-11T18:49:12.884Z,29.27
2022-12-11T18:54:20.777Z,25.83
2022-12-11T18:59:26.760Z,26.47
2022-12-11T19:04:31.912Z,25.33
2022-12-11T19:09:38.847Z,26.87
2022-12-11T19:14:44.895Z,27.20
2022-12-11T19:19:47.536Z,26.27
2022-12-11T19:24:49.679Z,31.10
2022-12-11T19:29:51.835Z,26.30
2022-12-11T19:34:54.545Z,33.60
2022-12-11T19:39:56.454Z,28.87
2022-12-11T19:44:59.621Z,29.40
2022-12-11T19:50:02.017Z,28.83
2022-12-11T19:55:08.200Z,32.77
2022-12-11T20:00:10.869Z,32.93
2022-12-11T20:05:20.194Z,30.90
2022-12-11T20:10:24.552Z,40.10
2022-12-11T20:15:27.634Z,38.23
2022-12-11T20:20:29.949Z,42.00
2022-12-11T20:25:32.442Z,38.47
2022-12-11T20:30:37.430Z,39.77
2022-12-11T20:35:40.674Z,44.40
2022-12-11T20:40:46.528Z,45.33
2022-12-11T20:45:49.710Z,44.13
2022-12-11T20:50:58.245Z,43.37
2022-12-11T20:56:02.391Z,40.33
2022-12-11T21:01:04.790Z,41.67
2022-12-11T21:06:09.214Z,47.75
2022-12-11T21:11:11.057Z,46.33
2022-12-11T21:16:18.133Z,55.47
2022-12-11T21:21:19.934Z,50.80
2022-12-11T21:26:23.244Z,64.03
2022-12-11T21:31:25.569Z,55.97
2022-12-11T21:36:33.875Z,49.23
2022-12-11T21:41:35.886Z,56.67
2022-12-11T21:46:42.843Z,48.93
2022-12-11T21:51:47.511Z,50.63
2022-12-11T21:56:49.549Z,47.60
2022-12-11T22:01:54.081Z,57.47
2022-12-11T22:06:56.025Z,61.90
2022-12-11T22:12:00.179Z,62.03
2022-12-11T22:17:02.025Z,68.93
2022-12-11T22:22:05.592Z,79.10
2022-12-11T22:27:07.521Z,69.60
2022-12-11T22:32:11.747Z,76.13
2022-12-11T22:37:16.809Z,76.57
2022-12-11T22:42:20.661Z,73.43
2022-12-11T22:47:23.555Z,75.73
2022-12-11T22:52:27.796Z,71.10
2022-12-11T22:57:31.961Z,78.60
2022-12-11T23:02:39.340Z,79.33
2022-12-11T23:07:41.491Z,87.07
2022-12-11T23:12:44.343Z,92.77
2022-12-11T23:17:51.529Z,90.03
2022-12-11T23:22:56.332Z,86.60
2022-12-11T23:28:05.089Z,97.33
2022-12-11T23:33:11.143Z,98.77
2022-12-11T23:38:13.277Z,95.43
2022-12-11T23:43:15.233Z,102.00
2022-12-11T23:48:17.225Z,82.43
2022-12-11T23:53:21.556Z,92.17
2022-12-11T23:58:23.323Z,93.37
